sensor_id;sensor_type;location;lat;lon;timestamp;P1;durP1;ratioP1;P2;durP2;ratioP2
71637;SDS011;59485;43.542;-5.676;2024-02-14T04:04:17;13.50;;;9.98;;
71637;SDS011;59485;43.542;-5.676;2024-02-14T04:22:30;14.27;;;9.07;;
71637;SDS011;59485;43.542;-5.676;2024-02-14T04:31:32;12.30;;;9.00;;
71637;SDS011;59485;43.542;-5.676;2024-02-14T04:56:35;12.73;;;9.13;;
71637;SDS011;59485;43.542;-5.676;2024-02-14T05:42:45;9.70;;;8.52;;
71637;SDS011;59485;43.542;-5.676;2024-02-14T05:48:20;10.40;;;9.18;;
71637;SDS011;59485;43.542;-5.676;2024-02-14T06:09:15;11.30;;;9.57;;
71637;SDS011;59485;43.542;-5.676;2024-02-14T06:11:41;13.77;;;9.80;;
71637;SDS011;59485;43.542;-5.676;2024-02-14T06:14:12;14.77;;;10.43;;
71637;SDS011;59485;43.542;-5.676;2024-02-14T06:16:41;13.35;;;10.02;;
71637;SDS011;59485;43.542;-5.676;2024-02-14T06:19:06;13.37;;;9.80;;
71637;SDS011;59485;43.542;-5.676;2024-02-14T06:21:32;15.03;;;10.50;;
71637;SDS011;59485;43.542;-5.676;2024-02-14T06:26:54;12.68;;;10.75;;
71637;SDS011;59485;43.542;-5.676;2024-02-14T06:29:20;19.38;;;17.27;;
71637;SDS011;59485;43.542;-5.676;2024-02-14T06:31:45;12.93;;;10.50;;
71637;SDS011;59485;43.542;-5.676;2024-02-14T06:34:12;13.82;;;10.35;;
71637;SDS011;59485;43.542;-5.676;2024-02-14T06:36:37;16.35;;;14.77;;
71637;SDS011;59485;43.542;-5.676;2024-02-14T06:39:03;12.93;;;10.50;;
71637;SDS011;59485;43.542;-5.676;2024-02-14T06:41:34;12.98;;;11.57;;
71637;SDS011;59485;43.542;-5.676;2024-02-14T06:44:00;11.43;;;9.63;;
71637;SDS011;59485;43.542;-5.676;2024-02-14T06:46:25;11.55;;;9.43;;
71637;SDS011;59485;43.542;-5.676;2024-02-14T06:48:54;14.73;;;10.02;;
71637;SDS011;59485;43.542;-5.676;2024-02-14T06:51:21;10.60;;;8.80;;
71637;SDS011;59485;43.542;-5.676;2024-02-14T06:53:47;10.73;;;8.70;;
71637;SDS011;59485;43.542;-5.676;2024-02-14T06:56:14;14.35;;;9.20;;
71637;SDS011;59485;43.542;-5.676;2024-02-14T06:58:46;12.40;;;9.18;;
71637;SDS011;59485;43.542;-5.676;2024-02-14T07:01:11;12.85;;;10.35;;
71637;SDS011;59485;43.542;-5.676;2024-02-14T07:03:40;14.23;;;10.13;;
71637;SDS011;59485;43.542;-5.676;2024-02-14T07:06:05;15.60;;;9.90;;
71637;SDS011;59485;43.542;-5.676;2024-02-14T07:08:31;17.47;;;15.03;;
71637;SDS011;59485;43.542;-5.676;2024-02-14T07:10:56;14.47;;;10.33;;
71637;SDS011;59485;43.542;-5.676;2024-02-14T07:13:22;16.75;;;11.38;;
71637;SDS011;59485;43.542;-5.676;2024-02-14T07:15:48;17.43;;;15.53;;
71637;SDS011;59485;43.542;-5.676;2024-02-14T07:18:13;14.43;;;9.57;;
71637;SDS011;59485;43.542;-5.676;2024-02-14T07:20:39;13.13;;;10.20;;
71637;SDS011;59485;43.542;-5.676;2024-02-14T07:23:04;14.47;;;9.30;;
71637;SDS011;59485;43.542;-5.676;2024-02-14T07:25:30;13.50;;;9.90;;
71637;SDS011;59485;43.542;-5.676;2024-02-14T07:27:56;14.83;;;10.80;;
71637;SDS011;59485;43.542;-5.676;2024-02-14T07:30:21;18.80;;;10.35;;
71637;SDS011;59485;43.542;-5.676;2024-02-14T07:32:47;15.50;;;10.20;;
71637;SDS011;59485;43.542;-5.676;2024-02-14T07:35:13;14.82;;;9.35;;
71637;SDS011;59485;43.542;-5.676;2024-02-14T07:37:39;11.30;;;8.87;;
71637;SDS011;59485;43.542;-5.676;2024-02-14T07:40:05;16.35;;;9.88;;
71637;SDS011;59485;43.542;-5.676;2024-02-14T07:42:31;12.90;;;8.73;;
71637;SDS011;59485;43.542;-5.676;2024-02-14T07:44:57;17.63;;;15.85;;
71637;SDS011;59485;43.542;-5.676;2024-02-14T07:47:22;19.00;;;13.00;;
71637;SDS011;59485;43.542;-5.676;2024-02-14T07:49:48;21.38;;;14.05;;
71637;SDS011;59485;43.542;-5.676;2024-02-14T07:52:13;25.73;;;17.67;;
71637;SDS011;59485;43.542;-5.676;2024-02-14T07:54:39;23.40;;;16.70;;
71637;SDS011;59485;43.542;-5.676;2024-02-14T07:57:05;21.13;;;13.88;;
71637;SDS011;59485;43.542;-5.676;2024-02-14T07:59:30;18.43;;;13.57;;
71637;SDS011;59485;43.542;-5.676;2024-02-14T08:01:58;20.25;;;14.05;;
71637;SDS011;59485;43.542;-5.676;2024-02-14T08:04:24;23.63;;;12.90;;
71637;SDS011;59485;43.542;-5.676;2024-02-14T08:06:49;20.60;;;12.32;;
71637;SDS011;59485;43.542;-5.676;2024-02-14T08:09:15;16.33;;;11.73;;
71637;SDS011;59485;43.542;-5.676;2024-02-14T08:11:41;16.90;;;11.23;;
71637;SDS011;59485;43.542;-5.676;2024-02-14T08:14:06;18.17;;;11.30;;
71637;SDS011;59485;43.542;-5.676;2024-02-14T08:16:32;17.52;;;10.80;;
71637;SDS011;59485;43.542;-5.676;2024-02-14T08:18:57;28.80;;;18.33;;
71637;SDS011;59485;43.542;-5.676;2024-02-14T08:21:26;21.70;;;14.70;;
71637;SDS011;59485;43.542;-5.676;2024-02-14T08:23:52;23.05;;;15.63;;
71637;SDS011;59485;43.542;-5.676;2024-02-14T08:26:22;20.33;;;14.73;;
71637;SDS011;59485;43.542;-5.676;2024-02-14T08:28:50;18.88;;;15.10;;
71637;SDS011;59485;43.542;-5.676;2024-02-14T08:31:16;22.52;;;19.65;;
71637;SDS011;59485;43.542;-5.676;2024-02-14T08:33:42;18.40;;;14.25;;
71637;SDS011;59485;43.542;-5.676;2024-02-14T08:36:08;16.77;;;11.00;;
71637;SDS011;59485;43.542;-5.676;2024-02-14T08:38:34;15.50;;;12.38;;
71637;SDS011;59485;43.542;-5.676;2024-02-14T08:41:00;17.83;;;11.87;;
71637;SDS011;59485;43.542;-5.676;2024-02-14T08:43:27;20.95;;;16.17;;
71637;SDS011;59485;43.542;-5.676;2024-02-14T08:45:56;18.95;;;13.05;;
71637;SDS011;59485;43.542;-5.676;2024-02-14T08:48:22;18.10;;;11.98;;
71637;SDS011;59485;43.542;-5.676;2024-02-14T08:50:49;19.48;;;12.07;;
71637;SDS011;59485;43.542;-5.676;2024-02-14T08:53:14;21.53;;;13.70;;
71637;SDS011;59485;43.542;-5.676;2024-02-14T08:55:40;20.00;;;15.60;;
71637;SDS011;59485;43.542;-5.676;2024-02-14T08:58:06;20.97;;;13.63;;
71637;SDS011;59485;43.542;-5.676;2024-02-14T09:00:34;21.55;;;14.07;;
71637;SDS011;59485;43.542;-5.676;2024-02-14T09:03:01;22.17;;;15.20;;
71637;SDS011;59485;43.542;-5.676;2024-02-14T09:05:27;18.63;;;13.23;;
71637;SDS011;59485;43.542;-5.676;2024-02-14T09:07:53;20.20;;;12.83;;
71637;SDS011;59485;43.542;-5.676;2024-02-14T09:10:19;18.80;;;12.55;;
71637;SDS011;59485;43.542;-5.676;2024-02-14T09:12:45;20.27;;;12.00;;
71637;SDS011;59485;43.542;-5.676;2024-02-14T09:15:10;17.63;;;12.93;;
71637;SDS011;59485;43.542;-5.676;2024-02-14T09:17:37;16.77;;;12.90;;
71637;SDS011;59485;43.542;-5.676;2024-02-14T09:20:04;16.87;;;13.00;;
71637;SDS011;59485;43.542;-5.676;2024-02-14T09:22:32;16.73;;;13.75;;
71637;SDS011;59485;43.542;-5.676;2024-02-14T09:24:59;17.38;;;12.43;;
71637;SDS011;59485;43.542;-5.676;2024-02-14T09:27:24;26.53;;;24.13;;
71637;SDS011;59485;43.542;-5.676;2024-02-14T09:29:50;17.95;;;12.68;;
71637;SDS011;59485;43.542;-5.676;2024-02-14T09:32:15;22.20;;;11.40;;
71637;SDS011;59485;43.542;-5.676;2024-02-14T09:34:41;17.57;;;11.23;;
71637;SDS011;59485;43.542;-5.676;2024-02-14T09:37:06;19.35;;;11.90;;
71637;SDS011;59485;43.542;-5.676;2024-02-14T09:39:32;21.77;;;17.47;;
71637;SDS011;59485;43.542;-5.676;2024-02-14T09:42:01;20.83;;;11.55;;
71637;SDS011;59485;43.542;-5.676;2024-02-14T09:44:34;19.63;;;13.52;;
71637;SDS011;59485;43.542;-5.676;2024-02-14T09:47:02;16.80;;;11.55;;
71637;SDS011;59485;43.542;-5.676;2024-02-14T09:49:30;13.83;;;10.10;;
71637;SDS011;59485;43.542;-5.676;2024-02-14T09:51:57;16.65;;;9.60;;
71637;SDS011;59485;43.542;-5.676;2024-02-14T09:54:24;17.70;;;10.57;;
71637;SDS011;59485;43.542;-5.676;2024-02-14T09:56:50;14.65;;;11.10;;
71637;SDS011;59485;43.542;-5.676;2024-02-14T09:59:21;17.13;;;11.38;;
71637;SDS011;59485;43.542;-5.676;2024-02-14T10:01:47;22.23;;;13.33;;
71637;SDS011;59485;43.542;-5.676;2024-02-14T10:04:15;23.25;;;20.48;;
71637;SDS011;59485;43.542;-5.676;2024-02-14T10:06:43;16.33;;;11.75;;
71637;SDS011;59485;43.542;-5.676;2024-02-14T10:09:08;15.77;;;11.00;;
71637;SDS011;59485;43.542;-5.676;2024-02-14T10:11:35;18.40;;;13.13;;
71637;SDS011;59485;43.542;-5.676;2024-02-14T10:14:01;16.73;;;10.55;;
71637;SDS011;59485;43.542;-5.676;2024-02-14T10:16:34;27.02;;;10.88;;
71637;SDS011;59485;43.542;-5.676;2024-02-14T10:19:00;19.50;;;13.27;;
71637;SDS011;59485;43.542;-5.676;2024-02-14T10:21:29;25.90;;;11.53;;
71637;SDS011;59485;43.542;-5.676;2024-02-14T10:24:01;18.30;;;11.65;;
71637;SDS011;59485;43.542;-5.676;2024-02-14T10:26:26;21.77;;;11.25;;
71637;SDS011;59485;43.542;-5.676;2024-02-14T10:28:56;20.63;;;10.95;;
71637;SDS011;59485;43.542;-5.676;2024-02-14T10:31:24;19.63;;;12.57;;
71637;SDS011;59485;43.542;-5.676;2024-02-14T10:33:51;18.80;;;12.23;;
71637;SDS011;59485;43.542;-5.676;2024-02-14T10:36:19;16.50;;;14.50;;
71637;SDS011;59485;43.542;-5.676;2024-02-14T10:38:46;18.30;;;11.75;;
71637;SDS011;59485;43.542;-5.676;2024-02-14T10:41:13;15.32;;;10.20;;
71637;SDS011;59485;43.542;-5.676;2024-02-14T10:43:42;21.77;;;16.80;;
71637;SDS011;59485;43.542;-5.676;2024-02-14T10:46:15;14.43;;;9.77;;
71637;SDS011;59485;43.542;-5.676;2024-02-14T10:48:52;11.90;;;10.13;;
71637;SDS011;59485;43.542;-5.676;2024-02-14T10:51:23;17.52;;;14.18;;
71637;SDS011;59485;43.542;-5.676;2024-02-14T10:53:50;18.90;;;11.15;;
71637;SDS011;59485;43.542;-5.676;2024-02-14T10:56:18;17.90;;;12.55;;
71637;SDS011;59485;43.542;-5.676;2024-02-14T10:58:47;13.43;;;10.23;;
71637;SDS011;59485;43.542;-5.676;2024-02-14T11:01:15;18.25;;;11.10;;
71637;SDS011;59485;43.542;-5.676;2024-02-14T11:03:42;15.32;;;11.43;;
71637;SDS011;59485;43.542;-5.676;2024-02-14T11:06:14;17.08;;;10.85;;
71637;SDS011;59485;43.542;-5.676;2024-02-14T11:08:42;17.50;;;11.82;;
71637;SDS011;59485;43.542;-5.676;2024-02-14T11:11:07;16.20;;;11.83;;
71637;SDS011;59485;43.542;-5.676;2024-02-14T11:13:35;17.23;;;11.75;;
71637;SDS011;59485;43.542;-5.676;2024-02-14T11:16:01;19.10;;;12.73;;
71637;SDS011;59485;43.542;-5.676;2024-02-14T11:18:28;20.15;;;13.27;;
71637;SDS011;59485;43.542;-5.676;2024-02-14T11:21:03;24.75;;;14.55;;
71637;SDS011;59485;43.542;-5.676;2024-02-14T11:23:30;20.10;;;13.90;;
71637;SDS011;59485;43.542;-5.676;2024-02-14T11:26:05;21.90;;;15.05;;
71637;SDS011;59485;43.542;-5.676;2024-02-14T11:28:36;19.43;;;14.33;;
71637;SDS011;59485;43.542;-5.676;2024-02-14T11:31:02;19.05;;;13.25;;
71637;SDS011;59485;43.542;-5.676;2024-02-14T11:33:29;31.48;;;28.67;;
71637;SDS011;59485;43.542;-5.676;2024-02-14T11:35:55;19.97;;;14.23;;
71637;SDS011;59485;43.542;-5.676;2024-02-14T11:38:21;18.42;;;13.88;;
71637;SDS011;59485;43.542;-5.676;2024-02-14T11:40:48;17.85;;;13.27;;
71637;SDS011;59485;43.542;-5.676;2024-02-14T11:43:15;24.15;;;21.85;;
71637;SDS011;59485;43.542;-5.676;2024-02-14T11:45:45;28.65;;;14.05;;
71637;SDS011;59485;43.542;-5.676;2024-02-14T11:48:16;28.97;;;13.63;;
71637;SDS011;59485;43.542;-5.676;2024-02-14T11:50:43;21.73;;;13.38;;
71637;SDS011;59485;43.542;-5.676;2024-02-14T11:53:13;25.38;;;14.38;;
71637;SDS011;59485;43.542;-5.676;2024-02-14T11:55:44;23.75;;;18.35;;
71637;SDS011;59485;43.542;-5.676;2024-02-14T11:58:12;21.50;;;14.45;;
71637;SDS011;59485;43.542;-5.676;2024-02-14T12:00:39;24.03;;;13.30;;
71637;SDS011;59485;43.542;-5.676;2024-02-14T12:03:10;28.25;;;18.08;;
71637;SDS011;59485;43.542;-5.676;2024-02-14T12:05:40;35.65;;;15.75;;
71637;SDS011;59485;43.542;-5.676;2024-02-14T12:08:09;33.45;;;13.98;;
71637;SDS011;59485;43.542;-5.676;2024-02-14T12:10:35;34.92;;;14.38;;
71637;SDS011;59485;43.542;-5.676;2024-02-14T12:13:09;36.33;;;13.03;;
71637;SDS011;59485;43.542;-5.676;2024-02-14T12:18:05;31.80;;;20.58;;
71637;SDS011;59485;43.542;-5.676;2024-02-14T12:20:31;21.25;;;13.50;;
71637;SDS011;59485;43.542;-5.676;2024-02-14T12:22:58;28.77;;;14.43;;
71637;SDS011;59485;43.542;-5.676;2024-02-14T12:25:25;21.73;;;14.17;;
71637;SDS011;59485;43.542;-5.676;2024-02-14T12:27:51;34.58;;;21.33;;
71637;SDS011;59485;43.542;-5.676;2024-02-14T12:30:18;26.38;;;14.93;;
71637;SDS011;59485;43.542;-5.676;2024-02-14T12:32:57;28.23;;;16.35;;
71637;SDS011;59485;43.542;-5.676;2024-02-14T12:35:26;29.27;;;18.17;;
71637;SDS011;59485;43.542;-5.676;2024-02-14T12:37:52;24.17;;;20.80;;
71637;SDS011;59485;43.542;-5.676;2024-02-14T12:40:19;16.20;;;10.35;;
71637;SDS011;59485;43.542;-5.676;2024-02-14T12:42:45;17.77;;;10.35;;
71637;SDS011;59485;43.542;-5.676;2024-02-14T12:45:10;19.67;;;9.23;;
71637;SDS011;59485;43.542;-5.676;2024-02-14T12:47:36;21.83;;;10.47;;
71637;SDS011;59485;43.542;-5.676;2024-02-14T12:50:02;24.67;;;16.77;;
71637;SDS011;59485;43.542;-5.676;2024-02-14T12:52:27;20.83;;;10.35;;
71637;SDS011;59485;43.542;-5.676;2024-02-14T12:54:53;16.93;;;10.23;;
71637;SDS011;59485;43.542;-5.676;2024-02-14T12:57:19;14.03;;;10.13;;
71637;SDS011;59485;43.542;-5.676;2024-02-14T12:59:46;24.55;;;11.52;;
71637;SDS011;59485;43.542;-5.676;2024-02-14T13:02:12;22.17;;;11.23;;
71637;SDS011;59485;43.542;-5.676;2024-02-14T13:04:38;18.60;;;10.57;;
71637;SDS011;59485;43.542;-5.676;2024-02-14T13:07:04;23.73;;;20.50;;
71637;SDS011;59485;43.542;-5.676;2024-02-14T13:09:30;20.50;;;9.85;;
71637;SDS011;59485;43.542;-5.676;2024-02-14T13:11:55;19.38;;;9.38;;
71637;SDS011;59485;43.542;-5.676;2024-02-14T13:14:21;14.73;;;10.93;;
71637;SDS011;59485;43.542;-5.676;2024-02-14T13:16:46;22.07;;;11.00;;
71637;SDS011;59485;43.542;-5.676;2024-02-14T13:19:12;19.50;;;10.35;;
71637;SDS011;59485;43.542;-5.676;2024-02-14T13:21:37;21.77;;;10.80;;
71637;SDS011;59485;43.542;-5.676;2024-02-14T13:24:04;23.00;;;10.85;;
71637;SDS011;59485;43.542;-5.676;2024-02-14T13:26:30;24.37;;;17.23;;
71637;SDS011;59485;43.542;-5.676;2024-02-14T13:28:56;18.08;;;9.98;;
71637;SDS011;59485;43.542;-5.676;2024-02-14T13:31:21;15.30;;;10.63;;
71637;SDS011;59485;43.542;-5.676;2024-02-14T13:33:47;20.63;;;17.93;;
71637;SDS011;59485;43.542;-5.676;2024-02-14T13:36:12;22.40;;;11.65;;
71637;SDS011;59485;43.542;-5.676;2024-02-14T13:38:40;19.52;;;10.82;;
71637;SDS011;59485;43.542;-5.676;2024-02-14T13:41:05;18.47;;;10.00;;
71637;SDS011;59485;43.542;-5.676;2024-02-14T13:43:31;20.97;;;13.53;;
71637;SDS011;59485;43.542;-5.676;2024-02-14T13:45:56;20.17;;;11.05;;
71637;SDS011;59485;43.542;-5.676;2024-02-14T13:48:22;18.67;;;13.53;;
71637;SDS011;59485;43.542;-5.676;2024-02-14T13:50:48;24.50;;;13.80;;
71637;SDS011;59485;43.542;-5.676;2024-02-14T13:53:14;20.02;;;12.20;;
71637;SDS011;59485;43.542;-5.676;2024-02-14T13:55:41;15.63;;;9.88;;
71637;SDS011;59485;43.542;-5.676;2024-02-14T13:58:07;23.08;;;9.82;;
71637;SDS011;59485;43.542;-5.676;2024-02-14T14:00:39;22.27;;;10.60;;
71637;SDS011;59485;43.542;-5.676;2024-02-14T14:03:04;18.70;;;9.87;;
71637;SDS011;59485;43.542;-5.676;2024-02-14T14:05:30;20.40;;;8.70;;
71637;SDS011;59485;43.542;-5.676;2024-02-14T14:07:56;21.23;;;9.45;;
71637;SDS011;59485;43.542;-5.676;2024-02-14T14:10:22;26.75;;;11.73;;
71637;SDS011;59485;43.542;-5.676;2024-02-14T14:12:50;24.40;;;16.93;;
71637;SDS011;59485;43.542;-5.676;2024-02-14T14:15:16;30.25;;;15.30;;
71637;SDS011;59485;43.542;-5.676;2024-02-14T14:17:41;24.57;;;11.23;;
71637;SDS011;59485;43.542;-5.676;2024-02-14T14:20:07;33.03;;;16.60;;
71637;SDS011;59485;43.542;-5.676;2024-02-14T14:22:33;26.30;;;16.87;;
71637;SDS011;59485;43.542;-5.676;2024-02-14T14:24:58;32.80;;;14.95;;
71637;SDS011;59485;43.542;-5.676;2024-02-14T14:27:24;29.17;;;12.10;;
71637;SDS011;59485;43.542;-5.676;2024-02-14T14:29:49;36.17;;;14.53;;
71637;SDS011;59485;43.542;-5.676;2024-02-14T14:32:15;31.25;;;13.48;;
71637;SDS011;59485;43.542;-5.676;2024-02-14T14:34:43;31.48;;;14.40;;
71637;SDS011;59485;43.542;-5.676;2024-02-14T14:37:09;37.63;;;12.60;;
71637;SDS011;59485;43.542;-5.676;2024-02-14T14:39:35;35.70;;;16.75;;
71637;SDS011;59485;43.542;-5.676;2024-02-14T14:42:01;34.45;;;19.25;;
71637;SDS011;59485;43.542;-5.676;2024-02-14T14:44:27;34.33;;;10.67;;
71637;SDS011;59485;43.542;-5.676;2024-02-14T14:46:53;23.40;;;10.18;;
71637;SDS011;59485;43.542;-5.676;2024-02-14T14:49:19;26.77;;;10.15;;
71637;SDS011;59485;43.542;-5.676;2024-02-14T14:51:45;22.90;;;10.07;;
71637;SDS011;59485;43.542;-5.676;2024-02-14T14:54:10;29.02;;;11.20;;
71637;SDS011;59485;43.542;-5.676;2024-02-14T14:56:36;22.83;;;10.07;;
71637;SDS011;59485;43.542;-5.676;2024-02-14T14:59:01;26.10;;;11.27;;
71637;SDS011;59485;43.542;-5.676;2024-02-14T15:01:29;19.00;;;9.23;;
71637;SDS011;59485;43.542;-5.676;2024-02-14T15:03:56;28.05;;;10.45;;
71637;SDS011;59485;43.542;-5.676;2024-02-14T15:06:21;23.50;;;10.60;;
71637;SDS011;59485;43.542;-5.676;2024-02-14T15:08:47;29.92;;;12.13;;
71637;SDS011;59485;43.542;-5.676;2024-02-14T15:11:13;24.93;;;10.43;;
71637;SDS011;59485;43.542;-5.676;2024-02-14T15:13:42;32.67;;;12.18;;
71637;SDS011;59485;43.542;-5.676;2024-02-14T15:16:09;25.55;;;11.60;;
71637;SDS011;59485;43.542;-5.676;2024-02-14T15:18:37;30.43;;;11.07;;
71637;SDS011;59485;43.542;-5.676;2024-02-14T15:21:03;33.60;;;11.20;;
71637;SDS011;59485;43.542;-5.676;2024-02-14T15:23:28;33.83;;;11.87;;
71637;SDS011;59485;43.542;-5.676;2024-02-14T15:25:54;42.17;;;22.58;;
71637;SDS011;59485;43.542;-5.676;2024-02-14T15:28:28;40.70;;;13.48;;
71637;SDS011;59485;43.542;-5.676;2024-02-14T15:30:58;40.53;;;13.40;;
71637;SDS011;59485;43.542;-5.676;2024-02-14T15:33:42;35.83;;;13.32;;
71637;SDS011;59485;43.542;-5.676;2024-02-14T15:36:09;36.53;;;14.02;;
71637;SDS011;59485;43.542;-5.676;2024-02-14T15:38:43;34.83;;;12.85;;
71637;SDS011;59485;43.542;-5.676;2024-02-14T15:41:08;32.80;;;13.03;;
71637;SDS011;59485;43.542;-5.676;2024-02-14T15:43:34;33.05;;;13.07;;
71637;SDS011;59485;43.542;-5.676;2024-02-14T15:46:03;31.40;;;12.35;;
71637;SDS011;59485;43.542;-5.676;2024-02-14T15:48:28;28.83;;;13.23;;
71637;SDS011;59485;43.542;-5.676;2024-02-14T15:50:54;34.50;;;13.45;;
71637;SDS011;59485;43.542;-5.676;2024-02-14T15:53:23;38.58;;;22.40;;
71637;SDS011;59485;43.542;-5.676;2024-02-14T15:55:52;31.83;;;12.90;;
71637;SDS011;59485;43.542;-5.676;2024-02-14T15:58:17;25.57;;;12.07;;
71637;SDS011;59485;43.542;-5.676;2024-02-14T16:00:43;33.65;;;12.32;;
71637;SDS011;59485;43.542;-5.676;2024-02-14T16:03:09;31.97;;;11.17;;
71637;SDS011;59485;43.542;-5.676;2024-02-14T16:05:36;32.65;;;11.57;;
71637;SDS011;59485;43.542;-5.676;2024-02-14T16:08:02;30.13;;;12.50;;
71637;SDS011;59485;43.542;-5.676;2024-02-14T16:10:31;25.05;;;10.45;;
71637;SDS011;59485;43.542;-5.676;2024-02-14T16:12:57;26.55;;;10.80;;
71637;SDS011;59485;43.542;-5.676;2024-02-14T16:15:23;26.23;;;15.90;;
71637;SDS011;59485;43.542;-5.676;2024-02-14T16:17:52;17.17;;;9.30;;
71637;SDS011;59485;43.542;-5.676;2024-02-14T16:20:18;24.13;;;9.65;;
71637;SDS011;59485;43.542;-5.676;2024-02-14T16:22:44;27.30;;;16.48;;
71637;SDS011;59485;43.542;-5.676;2024-02-14T16:25:11;22.95;;;10.88;;
71637;SDS011;59485;43.542;-5.676;2024-02-14T16:27:36;21.03;;;11.20;;
71637;SDS011;59485;43.542;-5.676;2024-02-14T16:30:06;27.80;;;11.55;;
71637;SDS011;59485;43.542;-5.676;2024-02-14T16:32:35;28.67;;;12.73;;
71637;SDS011;59485;43.542;-5.676;2024-02-14T16:35:01;15.32;;;10.93;;
71637;SDS011;59485;43.542;-5.676;2024-02-14T16:37:27;17.40;;;15.03;;
71637;SDS011;59485;43.542;-5.676;2024-02-14T16:39:53;37.03;;;16.80;;
71637;SDS011;59485;43.542;-5.676;2024-02-14T16:42:21;39.75;;;12.02;;
71637;SDS011;59485;43.542;-5.676;2024-02-14T16:44:47;35.40;;;11.73;;
71637;SDS011;59485;43.542;-5.676;2024-02-14T16:47:13;21.50;;;10.27;;
71637;SDS011;59485;43.542;-5.676;2024-02-14T16:49:41;31.38;;;27.40;;
71637;SDS011;59485;43.542;-5.676;2024-02-14T16:52:07;21.40;;;12.15;;
71637;SDS011;59485;43.542;-5.676;2024-02-14T16:54:33;23.70;;;9.83;;
71637;SDS011;59485;43.542;-5.676;2024-02-14T16:56:59;31.53;;;15.10;;
71637;SDS011;59485;43.542;-5.676;2024-02-14T16:59:37;37.67;;;13.98;;
71637;SDS011;59485;43.542;-5.676;2024-02-14T17:02:05;30.63;;;12.73;;
71637;SDS011;59485;43.542;-5.676;2024-02-14T17:04:31;31.20;;;11.30;;
71637;SDS011;59485;43.542;-5.676;2024-02-14T17:07:00;25.02;;;9.90;;
71637;SDS011;59485;43.542;-5.676;2024-02-14T17:09:25;30.73;;;10.23;;
71637;SDS011;59485;43.542;-5.676;2024-02-14T17:11:51;31.02;;;10.00;;
71637;SDS011;59485;43.542;-5.676;2024-02-14T17:14:18;33.40;;;10.50;;
71637;SDS011;59485;43.542;-5.676;2024-02-14T17:16:44;34.40;;;12.27;;
71637;SDS011;59485;43.542;-5.676;2024-02-14T17:19:11;28.50;;;15.60;;
71637;SDS011;59485;43.542;-5.676;2024-02-14T17:21:36;26.43;;;11.20;;
71637;SDS011;59485;43.542;-5.676;2024-02-14T17:24:02;24.47;;;12.03;;
71637;SDS011;59485;43.542;-5.676;2024-02-14T17:26:28;25.52;;;10.27;;
71637;SDS011;59485;43.542;-5.676;2024-02-14T17:28:54;29.20;;;10.88;;
71637;SDS011;59485;43.542;-5.676;2024-02-14T17:31:20;25.70;;;12.20;;
71637;SDS011;59485;43.542;-5.676;2024-02-14T17:33:45;27.77;;;11.85;;
71637;SDS011;59485;43.542;-5.676;2024-02-14T17:36:12;22.05;;;11.57;;
71637;SDS011;59485;43.542;-5.676;2024-02-14T17:38:38;32.28;;;23.10;;
71637;SDS011;59485;43.542;-5.676;2024-02-14T17:41:04;29.40;;;12.13;;
71637;SDS011;59485;43.542;-5.676;2024-02-14T17:43:31;33.55;;;22.80;;
71637;SDS011;59485;43.542;-5.676;2024-02-14T17:45:57;29.07;;;11.43;;
71637;SDS011;59485;43.542;-5.676;2024-02-14T17:48:23;26.73;;;11.43;;
71637;SDS011;59485;43.542;-5.676;2024-02-14T17:50:50;26.48;;;19.77;;
71637;SDS011;59485;43.542;-5.676;2024-02-14T17:53:16;24.50;;;11.38;;
71637;SDS011;59485;43.542;-5.676;2024-02-14T17:55:42;20.93;;;10.57;;
71637;SDS011;59485;43.542;-5.676;2024-02-14T17:58:07;27.88;;;10.40;;
71637;SDS011;59485;43.542;-5.676;2024-02-14T18:00:34;22.35;;;10.95;;
71637;SDS011;59485;43.542;-5.676;2024-02-14T18:03:00;21.90;;;10.50;;
71637;SDS011;59485;43.542;-5.676;2024-02-14T18:05:26;37.63;;;15.82;;
71637;SDS011;59485;43.542;-5.676;2024-02-14T18:07:52;26.98;;;11.02;;
71637;SDS011;59485;43.542;-5.676;2024-02-14T18:10:18;18.50;;;9.93;;
71637;SDS011;59485;43.542;-5.676;2024-02-14T18:12:44;23.27;;;10.27;;
71637;SDS011;59485;43.542;-5.676;2024-02-14T18:15:09;22.40;;;10.00;;
71637;SDS011;59485;43.542;-5.676;2024-02-14T18:17:35;19.33;;;9.98;;
71637;SDS011;59485;43.542;-5.676;2024-02-14T18:20:00;21.47;;;9.33;;
71637;SDS011;59485;43.542;-5.676;2024-02-14T18:22:27;21.58;;;9.75;;
71637;SDS011;59485;43.542;-5.676;2024-02-14T18:24:53;21.10;;;10.57;;
71637;SDS011;59485;43.542;-5.676;2024-02-14T18:27:19;29.73;;;24.38;;
71637;SDS011;59485;43.542;-5.676;2024-02-14T18:29:47;22.00;;;10.27;;
71637;SDS011;59485;43.542;-5.676;2024-02-14T18:32:13;21.52;;;10.75;;
71637;SDS011;59485;43.542;-5.676;2024-02-14T18:34:40;19.83;;;14.10;;
71637;SDS011;59485;43.542;-5.676;2024-02-14T18:37:05;19.95;;;9.75;;
71637;SDS011;59485;43.542;-5.676;2024-02-14T18:39:32;23.13;;;14.27;;
71637;SDS011;59485;43.542;-5.676;2024-02-14T18:41:58;22.95;;;9.82;;
71637;SDS011;59485;43.542;-5.676;2024-02-14T18:44:23;19.77;;;11.33;;
71637;SDS011;59485;43.542;-5.676;2024-02-14T18:46:49;18.92;;;10.18;;
71637;SDS011;59485;43.542;-5.676;2024-02-14T18:49:16;20.07;;;10.00;;
71637;SDS011;59485;43.542;-5.676;2024-02-14T18:51:42;30.10;;;15.68;;
71637;SDS011;59485;43.542;-5.676;2024-02-14T18:54:07;20.63;;;9.67;;
71637;SDS011;59485;43.542;-5.676;2024-02-14T18:56:33;18.30;;;9.70;;
71637;SDS011;59485;43.542;-5.676;2024-02-14T18:59:00;21.03;;;10.60;;
71637;SDS011;59485;43.542;-5.676;2024-02-14T19:01:25;28.38;;;15.25;;
71637;SDS011;59485;43.542;-5.676;2024-02-14T19:03:52;29.02;;;11.50;;
71637;SDS011;59485;43.542;-5.676;2024-02-14T19:06:19;27.17;;;15.35;;
71637;SDS011;59485;43.542;-5.676;2024-02-14T19:08:44;21.77;;;10.80;;
71637;SDS011;59485;43.542;-5.676;2024-02-14T19:11:11;22.40;;;10.73;;
71637;SDS011;59485;43.542;-5.676;2024-02-14T19:13:37;30.17;;;15.80;;
71637;SDS011;59485;43.542;-5.676;2024-02-14T19:16:04;23.00;;;12.55;;
71637;SDS011;59485;43.542;-5.676;2024-02-14T19:18:31;23.20;;;12.95;;
71637;SDS011;59485;43.542;-5.676;2024-02-14T19:20:57;24.93;;;11.70;;
71637;SDS011;59485;43.542;-5.676;2024-02-14T19:23:22;28.37;;;12.27;;
71637;SDS011;59485;43.542;-5.676;2024-02-14T19:25:48;26.50;;;13.00;;
71637;SDS011;59485;43.542;-5.676;2024-02-14T19:28:18;23.23;;;12.60;;
71637;SDS011;59485;43.542;-5.676;2024-02-14T19:30:44;25.57;;;12.03;;
71637;SDS011;59485;43.542;-5.676;2024-02-14T19:33:09;38.67;;;29.42;;
71637;SDS011;59485;43.542;-5.676;2024-02-14T19:35:35;29.20;;;13.73;;
71637;SDS011;59485;43.542;-5.676;2024-02-14T19:38:01;33.83;;;23.77;;
71637;SDS011;59485;43.542;-5.676;2024-02-14T19:40:26;25.83;;;13.63;;
71637;SDS011;59485;43.542;-5.676;2024-02-14T19:42:52;31.58;;;12.57;;
71637;SDS011;59485;43.542;-5.676;2024-02-14T19:45:17;35.97;;;16.73;;
71637;SDS011;59485;43.542;-5.676;2024-02-14T19:47:43;33.07;;;15.60;;
71637;SDS011;59485;43.542;-5.676;2024-02-14T19:50:10;37.65;;;16.30;;
71637;SDS011;59485;43.542;-5.676;2024-02-14T19:52:38;37.63;;;16.60;;
71637;SDS011;59485;43.542;-5.676;2024-02-14T19:55:03;30.10;;;14.63;;
71637;SDS011;59485;43.542;-5.676;2024-02-14T19:57:29;28.45;;;13.63;;
71637;SDS011;59485;43.542;-5.676;2024-02-14T19:59:58;28.75;;;13.93;;
71637;SDS011;59485;43.542;-5.676;2024-02-14T20:02:24;32.08;;;14.00;;
71637;SDS011;59485;43.542;-5.676;2024-02-14T20:04:51;34.08;;;22.50;;
71637;SDS011;59485;43.542;-5.676;2024-02-14T20:07:17;35.53;;;18.53;;